EG-0004 weather

Bir Hasanah
North Sinai Governorate, Egypt

Public forecast

Using degrees Celsius for public forecast. Weather courtesy of forecast.io.

METAR (pilot weather report)

Report is more than 6 hours old.

Closest report is El Arish International Airport, 57.1 nm (105.8 km) NNE. Retrieved 2019/05/13 14:00 UTC (11 days ago):

HEAR 131400Z 10007KT CAVOK 39/M02 Q1007 NOSIG

TAF (pilot weather forecast)

Forecast is more than 12 hours old.

Closest forecast is El Arish International Airport, 57.1 nm (105.8 km) NNE. Retrieved 2019/05/23 00:00 UTC (1 day ago):

TAF HEAR 232300Z 2400/2506 21008KT 9999 FEW025